sensor_id;sensor_type;location;lat;lon;timestamp;P1;durP1;ratioP1;P2;durP2;ratioP2
23300;SDS011;11819;51.394;12.340;2023-04-15T00:01:18;13.10;;;8.23;;
23300;SDS011;11819;51.394;12.340;2023-04-15T00:03:44;14.75;;;8.73;;
23300;SDS011;11819;51.394;12.340;2023-04-15T00:06:10;12.33;;;8.53;;
23300;SDS011;11819;51.394;12.340;2023-04-15T00:08:36;15.93;;;10.20;;
23300;SDS011;11819;51.394;12.340;2023-04-15T00:11:02;16.67;;;10.30;;
23300;SDS011;11819;51.394;12.340;2023-04-15T00:13:29;14.88;;;10.00;;
23300;SDS011;11819;51.394;12.340;2023-04-15T00:15:56;14.05;;;7.95;;
23300;SDS011;11819;51.394;12.340;2023-04-15T00:18:22;12.17;;;8.07;;
23300;SDS011;11819;51.394;12.340;2023-04-15T00:20:48;11.03;;;7.20;;
23300;SDS011;11819;51.394;12.340;2023-04-15T00:23:14;12.32;;;7.57;;
23300;SDS011;11819;51.394;12.340;2023-04-15T00:25:39;15.30;;;9.13;;
23300;SDS011;11819;51.394;12.340;2023-04-15T00:28:05;16.90;;;9.93;;
23300;SDS011;11819;51.394;12.340;2023-04-15T00:30:31;15.95;;;9.95;;
23300;SDS011;11819;51.394;12.340;2023-04-15T00:32:57;15.13;;;9.23;;
23300;SDS011;11819;51.394;12.340;2023-04-15T00:35:23;13.88;;;9.25;;
23300;SDS011;11819;51.394;12.340;2023-04-15T00:37:49;12.35;;;7.75;;
23300;SDS011;11819;51.394;12.340;2023-04-15T00:40:16;12.23;;;7.70;;
23300;SDS011;11819;51.394;12.340;2023-04-15T00:42:43;10.05;;;6.82;;
23300;SDS011;11819;51.394;12.340;2023-04-15T00:45:09;12.20;;;7.20;;
23300;SDS011;11819;51.394;12.340;2023-04-15T00:47:35;12.55;;;7.63;;
23300;SDS011;11819;51.394;12.340;2023-04-15T00:50:03;12.30;;;7.70;;
23300;SDS011;11819;51.394;12.340;2023-04-15T00:52:29;12.88;;;7.55;;
23300;SDS011;11819;51.394;12.340;2023-04-15T00:54:56;13.48;;;7.80;;
23300;SDS011;11819;51.394;12.340;2023-04-15T00:57:21;12.63;;;7.72;;
23300;SDS011;11819;51.394;12.340;2023-04-15T00:59:47;12.60;;;7.60;;
23300;SDS011;11819;51.394;12.340;2023-04-15T01:02:13;11.55;;;7.00;;
23300;SDS011;11819;51.394;12.340;2023-04-15T01:04:39;14.55;;;7.28;;
23300;SDS011;11819;51.394;12.340;2023-04-15T01:07:05;12.25;;;7.82;;
23300;SDS011;11819;51.394;12.340;2023-04-15T01:09:31;12.37;;;8.03;;
23300;SDS011;11819;51.394;12.340;2023-04-15T01:11:58;11.82;;;7.60;;
23300;SDS011;11819;51.394;12.340;2023-04-15T01:14:24;11.77;;;7.50;;
23300;SDS011;11819;51.394;12.340;2023-04-15T01:16:49;12.98;;;7.50;;
23300;SDS011;11819;51.394;12.340;2023-04-15T01:19:17;12.65;;;7.68;;
23300;SDS011;11819;51.394;12.340;2023-04-15T01:21:42;11.30;;;7.43;;
23300;SDS011;11819;51.394;12.340;2023-04-15T01:24:09;12.10;;;7.30;;
23300;SDS011;11819;51.394;12.340;2023-04-15T01:26:36;13.20;;;8.10;;
23300;SDS011;11819;51.394;12.340;2023-04-15T01:29:05;13.60;;;8.13;;
23300;SDS011;11819;51.394;12.340;2023-04-15T01:31:31;12.17;;;8.03;;
23300;SDS011;11819;51.394;12.340;2023-04-15T01:33:57;12.07;;;7.47;;
23300;SDS011;11819;51.394;12.340;2023-04-15T01:36:24;12.00;;;7.55;;
23300;SDS011;11819;51.394;12.340;2023-04-15T01:38:52;12.87;;;8.03;;
23300;SDS011;11819;51.394;12.340;2023-04-15T01:41:21;14.23;;;8.85;;
23300;SDS011;11819;51.394;12.340;2023-04-15T01:43:53;14.55;;;8.73;;
23300;SDS011;11819;51.394;12.340;2023-04-15T01:46:19;13.23;;;7.35;;
23300;SDS011;11819;51.394;12.340;2023-04-15T01:48:44;12.93;;;8.47;;
23300;SDS011;11819;51.394;12.340;2023-04-15T01:51:10;13.53;;;8.13;;
23300;SDS011;11819;51.394;12.340;2023-04-15T01:53:37;12.87;;;7.97;;
23300;SDS011;11819;51.394;12.340;2023-04-15T01:56:02;13.18;;;8.50;;
23300;SDS011;11819;51.394;12.340;2023-04-15T01:58:28;15.02;;;8.38;;
23300;SDS011;11819;51.394;12.340;2023-04-15T02:00:54;12.77;;;7.77;;
23300;SDS011;11819;51.394;12.340;2023-04-15T02:03:19;11.40;;;6.93;;
23300;SDS011;11819;51.394;12.340;2023-04-15T02:05:45;12.53;;;7.10;;
23300;SDS011;11819;51.394;12.340;2023-04-15T02:08:11;13.07;;;7.72;;
23300;SDS011;11819;51.394;12.340;2023-04-15T02:10:37;10.90;;;6.22;;
23300;SDS011;11819;51.394;12.340;2023-04-15T02:13:03;11.02;;;7.15;;
23300;SDS011;11819;51.394;12.340;2023-04-15T02:15:29;12.30;;;6.90;;
23300;SDS011;11819;51.394;12.340;2023-04-15T02:17:55;12.38;;;7.65;;
23300;SDS011;11819;51.394;12.340;2023-04-15T02:20:21;10.90;;;6.00;;
23300;SDS011;11819;51.394;12.340;2023-04-15T02:22:47;11.63;;;6.90;;
23300;SDS011;11819;51.394;12.340;2023-04-15T02:25:13;11.60;;;7.00;;
23300;SDS011;11819;51.394;12.340;2023-04-15T02:27:41;9.18;;;5.22;;
23300;SDS011;11819;51.394;12.340;2023-04-15T02:30:07;10.68;;;6.47;;
23300;SDS011;11819;51.394;12.340;2023-04-15T02:32:34;11.70;;;5.78;;
23300;SDS011;11819;51.394;12.340;2023-04-15T02:35:05;10.53;;;5.80;;
23300;SDS011;11819;51.394;12.340;2023-04-15T02:37:33;9.87;;;5.67;;
23300;SDS011;11819;51.394;12.340;2023-04-15T02:40:07;11.68;;;6.18;;
23300;SDS011;11819;51.394;12.340;2023-04-15T02:42:35;11.37;;;6.40;;
23300;SDS011;11819;51.394;12.340;2023-04-15T02:45:02;9.87;;;5.17;;
23300;SDS011;11819;51.394;12.340;2023-04-15T02:47:31;9.73;;;5.60;;
23300;SDS011;11819;51.394;12.340;2023-04-15T02:49:57;9.03;;;4.20;;
23300;SDS011;11819;51.394;12.340;2023-04-15T02:52:24;9.43;;;5.00;;
23300;SDS011;11819;51.394;12.340;2023-04-15T02:54:50;10.90;;;5.80;;
23300;SDS011;11819;51.394;12.340;2023-04-15T02:57:16;9.13;;;5.40;;
23300;SDS011;11819;51.394;12.340;2023-04-15T02:59:41;10.37;;;5.67;;
23300;SDS011;11819;51.394;12.340;2023-04-15T03:02:07;9.40;;;5.87;;
23300;SDS011;11819;51.394;12.340;2023-04-15T03:04:32;9.43;;;5.65;;
23300;SDS011;11819;51.394;12.340;2023-04-15T03:06:59;11.05;;;6.70;;
23300;SDS011;11819;51.394;12.340;2023-04-15T03:09:26;11.67;;;6.77;;
23300;SDS011;11819;51.394;12.340;2023-04-15T03:11:52;11.50;;;6.35;;
23300;SDS011;11819;51.394;12.340;2023-04-15T03:14:19;12.30;;;7.03;;
23300;SDS011;11819;51.394;12.340;2023-04-15T03:16:46;12.20;;;6.55;;
23300;SDS011;11819;51.394;12.340;2023-04-15T03:19:15;14.67;;;7.77;;
23300;SDS011;11819;51.394;12.340;2023-04-15T03:21:41;14.23;;;8.23;;
23300;SDS011;11819;51.394;12.340;2023-04-15T03:24:08;13.98;;;7.45;;
23300;SDS011;11819;51.394;12.340;2023-04-15T03:26:34;13.37;;;7.87;;
23300;SDS011;11819;51.394;12.340;2023-04-15T03:29:04;16.27;;;8.68;;
23300;SDS011;11819;51.394;12.340;2023-04-15T03:31:30;13.52;;;7.47;;
23300;SDS011;11819;51.394;12.340;2023-04-15T03:33:56;13.95;;;7.82;;
23300;SDS011;11819;51.394;12.340;2023-04-15T03:36:22;13.97;;;7.80;;
23300;SDS011;11819;51.394;12.340;2023-04-15T03:38:47;14.30;;;7.57;;
23300;SDS011;11819;51.394;12.340;2023-04-15T03:41:14;12.33;;;7.10;;
23300;SDS011;11819;51.394;12.340;2023-04-15T03:43:39;14.63;;;8.00;;
23300;SDS011;11819;51.394;12.340;2023-04-15T03:46:05;13.90;;;7.77;;
23300;SDS011;11819;51.394;12.340;2023-04-15T03:48:31;14.73;;;7.82;;
23300;SDS011;11819;51.394;12.340;2023-04-15T03:50:56;13.07;;;7.35;;
23300;SDS011;11819;51.394;12.340;2023-04-15T03:53:22;12.70;;;7.37;;
23300;SDS011;11819;51.394;12.340;2023-04-15T03:55:47;13.67;;;7.33;;
23300;SDS011;11819;51.394;12.340;2023-04-15T03:58:13;14.87;;;7.40;;
23300;SDS011;11819;51.394;12.340;2023-04-15T04:00:39;14.00;;;7.75;;
23300;SDS011;11819;51.394;12.340;2023-04-15T04:03:05;14.75;;;7.90;;
23300;SDS011;11819;51.394;12.340;2023-04-15T04:05:31;15.45;;;8.05;;
23300;SDS011;11819;51.394;12.340;2023-04-15T04:07:56;14.43;;;7.63;;
23300;SDS011;11819;51.394;12.340;2023-04-15T04:10:22;14.00;;;7.60;;
23300;SDS011;11819;51.394;12.340;2023-04-15T04:12:47;15.27;;;8.20;;
23300;SDS011;11819;51.394;12.340;2023-04-15T04:15:13;13.50;;;7.47;;
23300;SDS011;11819;51.394;12.340;2023-04-15T04:17:38;13.95;;;8.00;;
23300;SDS011;11819;51.394;12.340;2023-04-15T04:20:04;13.10;;;7.70;;
23300;SDS011;11819;51.394;12.340;2023-04-15T04:22:36;13.77;;;7.13;;
23300;SDS011;11819;51.394;12.340;2023-04-15T04:25:03;13.07;;;7.37;;
23300;SDS011;11819;51.394;12.340;2023-04-15T04:27:29;14.53;;;7.90;;
23300;SDS011;11819;51.394;12.340;2023-04-15T04:29:55;14.10;;;7.60;;
23300;SDS011;11819;51.394;12.340;2023-04-15T04:32:21;15.82;;;8.55;;
23300;SDS011;11819;51.394;12.340;2023-04-15T04:34:46;14.52;;;7.90;;
23300;SDS011;11819;51.394;12.340;2023-04-15T04:37:12;14.23;;;8.40;;
23300;SDS011;11819;51.394;12.340;2023-04-15T04:39:38;13.73;;;8.30;;
23300;SDS011;11819;51.394;12.340;2023-04-15T04:42:04;14.97;;;9.00;;
23300;SDS011;11819;51.394;12.340;2023-04-15T04:44:29;16.40;;;9.35;;
23300;SDS011;11819;51.394;12.340;2023-04-15T04:46:55;14.53;;;8.63;;
23300;SDS011;11819;51.394;12.340;2023-04-15T04:49:21;14.55;;;7.80;;
23300;SDS011;11819;51.394;12.340;2023-04-15T04:51:46;14.10;;;7.90;;
23300;SDS011;11819;51.394;12.340;2023-04-15T04:54:12;14.07;;;7.97;;
23300;SDS011;11819;51.394;12.340;2023-04-15T04:56:38;13.43;;;7.97;;
23300;SDS011;11819;51.394;12.340;2023-04-15T04:59:04;12.50;;;7.23;;
23300;SDS011;11819;51.394;12.340;2023-04-15T05:01:30;14.13;;;8.53;;
23300;SDS011;11819;51.394;12.340;2023-04-15T05:03:55;13.15;;;6.93;;
23300;SDS011;11819;51.394;12.340;2023-04-15T05:06:21;13.07;;;7.40;;
23300;SDS011;11819;51.394;12.340;2023-04-15T05:08:46;11.50;;;6.57;;
23300;SDS011;11819;51.394;12.340;2023-04-15T05:11:12;12.10;;;7.20;;
23300;SDS011;11819;51.394;12.340;2023-04-15T05:13:38;12.87;;;7.37;;
23300;SDS011;11819;51.394;12.340;2023-04-15T05:16:04;12.03;;;6.97;;
23300;SDS011;11819;51.394;12.340;2023-04-15T05:18:30;13.53;;;7.50;;
23300;SDS011;11819;51.394;12.340;2023-04-15T05:20:56;12.93;;;7.30;;
23300;SDS011;11819;51.394;12.340;2023-04-15T05:23:22;13.30;;;8.47;;
23300;SDS011;11819;51.394;12.340;2023-04-15T05:25:48;14.18;;;7.70;;
23300;SDS011;11819;51.394;12.340;2023-04-15T05:28:13;14.63;;;8.50;;
23300;SDS011;11819;51.394;12.340;2023-04-15T05:30:39;15.60;;;9.33;;
23300;SDS011;11819;51.394;12.340;2023-04-15T05:33:05;14.53;;;8.57;;
23300;SDS011;11819;51.394;12.340;2023-04-15T05:35:30;14.17;;;9.03;;
23300;SDS011;11819;51.394;12.340;2023-04-15T05:37:56;14.90;;;8.53;;
23300;SDS011;11819;51.394;12.340;2023-04-15T05:40:21;15.37;;;9.17;;
23300;SDS011;11819;51.394;12.340;2023-04-15T05:42:47;11.53;;;6.40;;
23300;SDS011;11819;51.394;12.340;2023-04-15T05:45:13;14.35;;;8.50;;
23300;SDS011;11819;51.394;12.340;2023-04-15T05:47:38;14.95;;;8.90;;
23300;SDS011;11819;51.394;12.340;2023-04-15T05:50:04;14.15;;;7.88;;
23300;SDS011;11819;51.394;12.340;2023-04-15T05:52:30;12.75;;;7.32;;
23300;SDS011;11819;51.394;12.340;2023-04-15T05:54:56;15.00;;;9.13;;
23300;SDS011;11819;51.394;12.340;2023-04-15T05:57:22;13.38;;;7.28;;
23300;SDS011;11819;51.394;12.340;2023-04-15T05:59:47;14.60;;;7.45;;
23300;SDS011;11819;51.394;12.340;2023-04-15T06:02:15;12.43;;;7.80;;
23300;SDS011;11819;51.394;12.340;2023-04-15T06:04:41;15.33;;;8.30;;
23300;SDS011;11819;51.394;12.340;2023-04-15T06:07:07;11.83;;;6.60;;
23300;SDS011;11819;51.394;12.340;2023-04-15T06:09:32;13.43;;;7.78;;
23300;SDS011;11819;51.394;12.340;2023-04-15T06:11:58;16.50;;;9.57;;
23300;SDS011;11819;51.394;12.340;2023-04-15T06:14:25;15.73;;;8.77;;
23300;SDS011;11819;51.394;12.340;2023-04-15T06:16:52;13.52;;;8.48;;
23300;SDS011;11819;51.394;12.340;2023-04-15T06:19:18;15.83;;;8.93;;
23300;SDS011;11819;51.394;12.340;2023-04-15T06:21:44;15.18;;;9.13;;
23300;SDS011;11819;51.394;12.340;2023-04-15T06:24:10;14.65;;;8.60;;
23300;SDS011;11819;51.394;12.340;2023-04-15T06:26:36;13.57;;;7.60;;
23300;SDS011;11819;51.394;12.340;2023-04-15T06:29:01;14.88;;;9.10;;
23300;SDS011;11819;51.394;12.340;2023-04-15T06:31:27;14.00;;;8.30;;
23300;SDS011;11819;51.394;12.340;2023-04-15T06:33:53;14.35;;;8.07;;
23300;SDS011;11819;51.394;12.340;2023-04-15T06:36:18;14.73;;;8.90;;
23300;SDS011;11819;51.394;12.340;2023-04-15T06:38:44;15.80;;;9.20;;
23300;SDS011;11819;51.394;12.340;2023-04-15T06:41:10;13.00;;;8.27;;
23300;SDS011;11819;51.394;12.340;2023-04-15T06:43:36;14.70;;;9.13;;
23300;SDS011;11819;51.394;12.340;2023-04-15T06:46:01;12.57;;;7.75;;
23300;SDS011;11819;51.394;12.340;2023-04-15T06:48:27;12.30;;;8.60;;
23300;SDS011;11819;51.394;12.340;2023-04-15T06:50:52;12.88;;;7.28;;
23300;SDS011;11819;51.394;12.340;2023-04-15T06:53:18;15.00;;;8.70;;
23300;SDS011;11819;51.394;12.340;2023-04-15T06:55:44;11.77;;;7.45;;
23300;SDS011;11819;51.394;12.340;2023-04-15T06:58:10;13.05;;;7.35;;
23300;SDS011;11819;51.394;12.340;2023-04-15T07:00:35;13.38;;;7.80;;
23300;SDS011;11819;51.394;12.340;2023-04-15T07:03:03;14.35;;;8.48;;
23300;SDS011;11819;51.394;12.340;2023-04-15T07:05:29;12.00;;;7.38;;
23300;SDS011;11819;51.394;12.340;2023-04-15T07:07:56;14.02;;;8.27;;
23300;SDS011;11819;51.394;12.340;2023-04-15T07:10:22;13.23;;;8.05;;
23300;SDS011;11819;51.394;12.340;2023-04-15T07:12:48;13.82;;;8.10;;
23300;SDS011;11819;51.394;12.340;2023-04-15T07:15:14;15.02;;;8.48;;
23300;SDS011;11819;51.394;12.340;2023-04-15T07:17:40;14.02;;;7.55;;
23300;SDS011;11819;51.394;12.340;2023-04-15T07:20:09;14.90;;;8.63;;
23300;SDS011;11819;51.394;12.340;2023-04-15T07:22:36;14.00;;;8.95;;
23300;SDS011;11819;51.394;12.340;2023-04-15T07:25:04;14.23;;;8.90;;
23300;SDS011;11819;51.394;12.340;2023-04-15T07:27:30;13.30;;;8.30;;
23300;SDS011;11819;51.394;12.340;2023-04-15T07:29:56;14.98;;;9.52;;
23300;SDS011;11819;51.394;12.340;2023-04-15T07:32:22;14.82;;;8.93;;
23300;SDS011;11819;51.394;12.340;2023-04-15T07:34:47;15.30;;;9.25;;
23300;SDS011;11819;51.394;12.340;2023-04-15T07:37:13;16.55;;;9.43;;
23300;SDS011;11819;51.394;12.340;2023-04-15T07:39:39;15.65;;;9.63;;
23300;SDS011;11819;51.394;12.340;2023-04-15T07:42:05;17.60;;;10.32;;
23300;SDS011;11819;51.394;12.340;2023-04-15T07:44:31;16.23;;;10.48;;
23300;SDS011;11819;51.394;12.340;2023-04-15T07:46:57;17.23;;;9.45;;
23300;SDS011;11819;51.394;12.340;2023-04-15T07:49:23;16.40;;;9.65;;
23300;SDS011;11819;51.394;12.340;2023-04-15T07:51:48;18.20;;;9.77;;
23300;SDS011;11819;51.394;12.340;2023-04-15T07:54:14;16.65;;;9.50;;
23300;SDS011;11819;51.394;12.340;2023-04-15T07:56:43;17.30;;;9.95;;
23300;SDS011;11819;51.394;12.340;2023-04-15T07:59:09;15.38;;;9.02;;
23300;SDS011;11819;51.394;12.340;2023-04-15T08:01:34;16.58;;;9.32;;
23300;SDS011;11819;51.394;12.340;2023-04-15T08:04:00;17.98;;;10.65;;
23300;SDS011;11819;51.394;12.340;2023-04-15T08:06:26;18.58;;;10.90;;
23300;SDS011;11819;51.394;12.340;2023-04-15T08:08:51;15.57;;;8.85;;
23300;SDS011;11819;51.394;12.340;2023-04-15T08:11:19;17.63;;;10.68;;
23300;SDS011;11819;51.394;12.340;2023-04-15T08:13:45;18.25;;;10.25;;
23300;SDS011;11819;51.394;12.340;2023-04-15T08:16:24;20.23;;;10.93;;
23300;SDS011;11819;51.394;12.340;2023-04-15T08:18:52;18.67;;;10.90;;
23300;SDS011;11819;51.394;12.340;2023-04-15T08:21:20;18.70;;;10.68;;
23300;SDS011;11819;51.394;12.340;2023-04-15T08:23:46;18.13;;;10.93;;
23300;SDS011;11819;51.394;12.340;2023-04-15T08:26:13;19.08;;;11.23;;
23300;SDS011;11819;51.394;12.340;2023-04-15T08:28:40;17.08;;;10.80;;
23300;SDS011;11819;51.394;12.340;2023-04-15T08:31:09;19.77;;;11.23;;
23300;SDS011;11819;51.394;12.340;2023-04-15T08:33:36;17.85;;;10.77;;
23300;SDS011;11819;51.394;12.340;2023-04-15T08:36:02;20.67;;;11.93;;
23300;SDS011;11819;51.394;12.340;2023-04-15T08:38:28;23.15;;;13.18;;
23300;SDS011;11819;51.394;12.340;2023-04-15T08:40:54;22.75;;;13.80;;
23300;SDS011;11819;51.394;12.340;2023-04-15T08:43:21;25.65;;;14.75;;
23300;SDS011;11819;51.394;12.340;2023-04-15T08:45:51;25.67;;;15.23;;
23300;SDS011;11819;51.394;12.340;2023-04-15T08:48:17;24.90;;;15.23;;
23300;SDS011;11819;51.394;12.340;2023-04-15T08:50:43;27.63;;;16.35;;
23300;SDS011;11819;51.394;12.340;2023-04-15T08:53:10;29.00;;;16.17;;
23300;SDS011;11819;51.394;12.340;2023-04-15T08:55:39;26.77;;;15.50;;
23300;SDS011;11819;51.394;12.340;2023-04-15T08:58:09;29.13;;;16.50;;
23300;SDS011;11819;51.394;12.340;2023-04-15T09:00:36;30.48;;;17.63;;
23300;SDS011;11819;51.394;12.340;2023-04-15T09:03:05;34.45;;;19.17;;
23300;SDS011;11819;51.394;12.340;2023-04-15T09:05:32;33.90;;;19.58;;
23300;SDS011;11819;51.394;12.340;2023-04-15T09:07:58;34.03;;;19.63;;
23300;SDS011;11819;51.394;12.340;2023-04-15T09:10:24;36.35;;;20.08;;
23300;SDS011;11819;51.394;12.340;2023-04-15T09:12:49;38.08;;;20.33;;
23300;SDS011;11819;51.394;12.340;2023-04-15T09:15:15;38.30;;;21.08;;
23300;SDS011;11819;51.394;12.340;2023-04-15T09:17:44;40.75;;;21.23;;
23300;SDS011;11819;51.394;12.340;2023-04-15T09:20:18;38.03;;;21.00;;
23300;SDS011;11819;51.394;12.340;2023-04-15T09:22:44;34.70;;;20.40;;
23300;SDS011;11819;51.394;12.340;2023-04-15T09:27:49;40.92;;;22.15;;
23300;SDS011;11819;51.394;12.340;2023-04-15T09:30:23;35.20;;;20.60;;
23300;SDS011;11819;51.394;12.340;2023-04-15T09:35:15;38.60;;;22.45;;
23300;SDS011;11819;51.394;12.340;2023-04-15T09:37:40;34.90;;;20.90;;
23300;SDS011;11819;51.394;12.340;2023-04-15T09:40:06;36.75;;;21.25;;
23300;SDS011;11819;51.394;12.340;2023-04-15T09:42:34;46.65;;;23.95;;
23300;SDS011;11819;51.394;12.340;2023-04-15T09:45:10;40.22;;;23.55;;
23300;SDS011;11819;51.394;12.340;2023-04-15T09:47:36;44.33;;;24.67;;
23300;SDS011;11819;51.394;12.340;2023-04-15T09:50:02;43.10;;;24.02;;
23300;SDS011;11819;51.394;12.340;2023-04-15T09:52:28;41.63;;;24.77;;
23300;SDS011;11819;51.394;12.340;2023-04-15T09:54:55;42.97;;;24.88;;
23300;SDS011;11819;51.394;12.340;2023-04-15T09:57:22;42.47;;;25.95;;
23300;SDS011;11819;51.394;12.340;2023-04-15T09:59:49;43.85;;;26.30;;
23300;SDS011;11819;51.394;12.340;2023-04-15T10:02:17;51.85;;;27.02;;
23300;SDS011;11819;51.394;12.340;2023-04-15T10:04:44;47.88;;;26.88;;
23300;SDS011;11819;51.394;12.340;2023-04-15T10:07:12;43.03;;;26.73;;
23300;SDS011;11819;51.394;12.340;2023-04-15T10:09:39;47.50;;;27.48;;
23300;SDS011;11819;51.394;12.340;2023-04-15T10:12:05;51.85;;;27.63;;
23300;SDS011;11819;51.394;12.340;2023-04-15T10:14:32;49.78;;;28.73;;
23300;SDS011;11819;51.394;12.340;2023-04-15T10:17:02;46.72;;;27.75;;
23300;SDS011;11819;51.394;12.340;2023-04-15T10:19:32;51.88;;;29.60;;
23300;SDS011;11819;51.394;12.340;2023-04-15T10:22:01;52.13;;;28.88;;
23300;SDS011;11819;51.394;12.340;2023-04-15T10:24:27;45.97;;;28.05;;
23300;SDS011;11819;51.394;12.340;2023-04-15T10:26:55;50.80;;;29.58;;
23300;SDS011;11819;51.394;12.340;2023-04-15T10:29:22;48.45;;;27.67;;
23300;SDS011;11819;51.394;12.340;2023-04-15T10:31:51;49.35;;;29.40;;
23300;SDS011;11819;51.394;12.340;2023-04-15T10:34:19;49.80;;;29.65;;
23300;SDS011;11819;51.394;12.340;2023-04-15T10:36:45;50.88;;;30.45;;
23300;SDS011;11819;51.394;12.340;2023-04-15T10:42:10;49.10;;;28.65;;
23300;SDS011;11819;51.394;12.340;2023-04-15T10:44:41;49.75;;;30.27;;
23300;SDS011;11819;51.394;12.340;2023-04-15T10:47:09;49.10;;;28.77;;
23300;SDS011;11819;51.394;12.340;2023-04-15T10:49:43;48.63;;;30.08;;
23300;SDS011;11819;51.394;12.340;2023-04-15T10:52:10;52.78;;;31.88;;
23300;SDS011;11819;51.394;12.340;2023-04-15T10:54:36;50.90;;;30.55;;
23300;SDS011;11819;51.394;12.340;2023-04-15T10:59:30;45.80;;;29.05;;
23300;SDS011;11819;51.394;12.340;2023-04-15T11:01:59;45.75;;;29.05;;
23300;SDS011;11819;51.394;12.340;2023-04-15T11:12:43;46.70;;;28.52;;
23300;SDS011;11819;51.394;12.340;2023-04-15T11:15:26;45.35;;;28.27;;
23300;SDS011;11819;51.394;12.340;2023-04-15T11:17:59;46.28;;;28.67;;
23300;SDS011;11819;51.394;12.340;2023-04-15T11:20:37;47.35;;;29.75;;
23300;SDS011;11819;51.394;12.340;2023-04-15T11:23:04;45.08;;;29.35;;
23300;SDS011;11819;51.394;12.340;2023-04-15T11:25:31;45.17;;;28.65;;
23300;SDS011;11819;51.394;12.340;2023-04-15T11:27:58;43.22;;;27.35;;
23300;SDS011;11819;51.394;12.340;2023-04-15T11:30:26;43.85;;;28.13;;
23300;SDS011;11819;51.394;12.340;2023-04-15T11:32:56;40.55;;;26.77;;
23300;SDS011;11819;51.394;12.340;2023-04-15T11:35:23;38.47;;;26.35;;
23300;SDS011;11819;51.394;12.340;2023-04-15T11:37:49;40.05;;;26.15;;
23300;SDS011;11819;51.394;12.340;2023-04-15T11:40:15;38.85;;;24.52;;
23300;SDS011;11819;51.394;12.340;2023-04-15T11:43:02;40.45;;;26.38;;
23300;SDS011;11819;51.394;12.340;2023-04-15T11:45:57;41.45;;;26.88;;
23300;SDS011;11819;51.394;12.340;2023-04-15T11:48:28;39.17;;;24.80;;
23300;SDS011;11819;51.394;12.340;2023-04-15T11:50:57;37.97;;;25.05;;
23300;SDS011;11819;51.394;12.340;2023-04-15T11:53:24;37.90;;;24.05;;
23300;SDS011;11819;51.394;12.340;2023-04-15T11:56:05;31.60;;;23.83;;
23300;SDS011;11819;51.394;12.340;2023-04-15T11:58:33;33.17;;;21.95;;
23300;SDS011;11819;51.394;12.340;2023-04-15T12:01:02;35.30;;;23.27;;
23300;SDS011;11819;51.394;12.340;2023-04-15T12:03:29;37.72;;;23.92;;
23300;SDS011;11819;51.394;12.340;2023-04-15T12:11:19;33.17;;;22.45;;
23300;SDS011;11819;51.394;12.340;2023-04-15T12:13:55;31.13;;;21.73;;
23300;SDS011;11819;51.394;12.340;2023-04-15T12:16:22;33.28;;;21.05;;
23300;SDS011;11819;51.394;12.340;2023-04-15T12:18:49;34.33;;;21.55;;
23300;SDS011;11819;51.394;12.340;2023-04-15T12:21:23;33.17;;;22.38;;
23300;SDS011;11819;51.394;12.340;2023-04-15T12:23:54;30.52;;;21.77;;
23300;SDS011;11819;51.394;12.340;2023-04-15T12:26:28;33.22;;;21.83;;
23300;SDS011;11819;51.394;12.340;2023-04-15T12:29:09;31.58;;;22.38;;
23300;SDS011;11819;51.394;12.340;2023-04-15T12:31:36;27.25;;;20.08;;
23300;SDS011;11819;51.394;12.340;2023-04-15T12:34:10;29.15;;;20.88;;
23300;SDS011;11819;51.394;12.340;2023-04-15T12:36:36;29.38;;;21.98;;
23300;SDS011;11819;51.394;12.340;2023-04-15T12:39:03;28.17;;;19.77;;
23300;SDS011;11819;51.394;12.340;2023-04-15T12:41:30;26.00;;;19.88;;
23300;SDS011;11819;51.394;12.340;2023-04-15T12:43:56;29.65;;;19.42;;
23300;SDS011;11819;51.394;12.340;2023-04-15T12:46:22;27.20;;;19.88;;
23300;SDS011;11819;51.394;12.340;2023-04-15T12:48:48;24.88;;;18.73;;
23300;SDS011;11819;51.394;12.340;2023-04-15T12:51:16;23.58;;;17.52;;
23300;SDS011;11819;51.394;12.340;2023-04-15T12:53:41;26.17;;;18.70;;
23300;SDS011;11819;51.394;12.340;2023-04-15T12:56:07;22.88;;;17.08;;
23300;SDS011;11819;51.394;12.340;2023-04-15T12:58:32;22.00;;;16.58;;
23300;SDS011;11819;51.394;12.340;2023-04-15T13:00:59;19.45;;;14.75;;
23300;SDS011;11819;51.394;12.340;2023-04-15T13:03:24;21.90;;;15.95;;
23300;SDS011;11819;51.394;12.340;2023-04-15T13:05:50;21.02;;;15.43;;
23300;SDS011;11819;51.394;12.340;2023-04-15T13:08:16;20.80;;;15.55;;
23300;SDS011;11819;51.394;12.340;2023-04-15T13:10:42;21.00;;;15.48;;
23300;SDS011;11819;51.394;12.340;2023-04-15T13:13:08;18.25;;;14.52;;
23300;SDS011;11819;51.394;12.340;2023-04-15T13:15:33;17.42;;;13.73;;
23300;SDS011;11819;51.394;12.340;2023-04-15T13:17:59;19.58;;;14.07;;
23300;SDS011;11819;51.394;12.340;2023-04-15T13:20:25;21.48;;;14.55;;
23300;SDS011;11819;51.394;12.340;2023-04-15T13:22:51;18.60;;;13.80;;
23300;SDS011;11819;51.394;12.340;2023-04-15T13:25:18;17.98;;;14.32;;
23300;SDS011;11819;51.394;12.340;2023-04-15T13:27:43;18.52;;;13.50;;
23300;SDS011;11819;51.394;12.340;2023-04-15T13:30:09;18.05;;;13.05;;
23300;SDS011;11819;51.394;12.340;2023-04-15T13:32:35;17.15;;;12.55;;
23300;SDS011;11819;51.394;12.340;2023-04-15T13:35:00;17.70;;;12.80;;
23300;SDS011;11819;51.394;12.340;2023-04-15T13:37:27;17.23;;;13.02;;
23300;SDS011;11819;51.394;12.340;2023-04-15T13:39:54;16.65;;;12.30;;
23300;SDS011;11819;51.394;12.340;2023-04-15T13:42:23;16.58;;;12.43;;
23300;SDS011;11819;51.394;12.340;2023-04-15T13:44:49;17.75;;;12.25;;
23300;SDS011;11819;51.394;12.340;2023-04-15T13:47:18;16.48;;;12.07;;
23300;SDS011;11819;51.394;12.340;2023-04-15T13:49:44;16.20;;;12.27;;
23300;SDS011;11819;51.394;12.340;2023-04-15T13:52:10;17.17;;;12.60;;
23300;SDS011;11819;51.394;12.340;2023-04-15T13:54:36;15.75;;;12.43;;
23300;SDS011;11819;51.394;12.340;2023-04-15T13:59:35;16.88;;;11.93;;
23300;SDS011;11819;51.394;12.340;2023-04-15T14:02:01;16.52;;;12.45;;
23300;SDS011;11819;51.394;12.340;2023-04-15T14:04:26;16.50;;;11.35;;
23300;SDS011;11819;51.394;12.340;2023-04-15T14:06:52;14.48;;;11.23;;
23300;SDS011;11819;51.394;12.340;2023-04-15T14:09:18;15.38;;;11.68;;
23300;SDS011;11819;51.394;12.340;2023-04-15T14:11:46;14.18;;;10.35;;
23300;SDS011;11819;51.394;12.340;2023-04-15T14:14:11;15.15;;;11.10;;
23300;SDS011;11819;51.394;12.340;2023-04-15T14:16:37;14.20;;;11.15;;
23300;SDS011;11819;51.394;12.340;2023-04-15T14:19:02;13.65;;;10.77;;
23300;SDS011;11819;51.394;12.340;2023-04-15T14:21:28;14.50;;;11.18;;
23300;SDS011;11819;51.394;12.340;2023-04-15T14:23:56;15.25;;;10.15;;
23300;SDS011;11819;51.394;12.340;2023-04-15T14:26:21;12.52;;;9.95;;
23300;SDS011;11819;51.394;12.340;2023-04-15T14:28:47;14.10;;;10.50;;
23300;SDS011;11819;51.394;12.340;2023-04-15T14:31:13;14.02;;;10.93;;
23300;SDS011;11819;51.394;12.340;2023-04-15T14:33:39;14.15;;;10.73;;
23300;SDS011;11819;51.394;12.340;2023-04-15T14:36:05;16.00;;;11.05;;
23300;SDS011;11819;51.394;12.340;2023-04-15T14:38:35;14.77;;;10.88;;
23300;SDS011;11819;51.394;12.340;2023-04-15T14:41:03;15.05;;;10.20;;